createdAt,value
2023-05-05T00:02:48.428Z,74.62
2023-05-05T00:07:51.010Z,75.07
2023-05-05T00:12:54.921Z,75.23
2023-05-05T00:17:57.577Z,75.55
2023-05-05T00:23:00.174Z,76.06
2023-05-05T00:28:04.082Z,76.05
2023-05-05T00:33:07.490Z,76.58
2023-05-05T00:38:10.178Z,76.98
2023-05-05T00:43:14.074Z,79.10
2023-05-05T00:48:18.809Z,79.13
2023-05-05T00:53:21.356Z,78.76
2023-05-05T00:58:25.514Z,79.75
2023-05-05T01:03:28.731Z,80.18
2023-05-05T01:08:45.090Z,82.78
2023-05-05T01:13:59.148Z,81.57
2023-05-05T01:19:13.431Z,81.91
2023-05-05T01:24:37.163Z,82.75
2023-05-05T01:30:01.894Z,82.90
2023-05-05T01:35:13.285Z,82.46
2023-05-05T01:40:20.764Z,82.98
2023-05-05T01:45:27.315Z,83.88
2023-05-05T01:50:32.858Z,84.88
2023-05-05T01:55:37.434Z,86.19
2023-05-05T02:00:40.760Z,91.23
2023-05-05T02:05:45.410Z,89.11
2023-05-05T02:10:49.277Z,92.08
2023-05-05T02:15:53.326Z,93.84
2023-05-05T02:20:57.295Z,93.68
2023-05-05T02:26:05.657Z,95.03
2023-05-05T02:31:10.571Z,96.76
2023-05-05T02:36:18.778Z,97.55
2023-05-05T02:41:34.621Z,98.02
2023-05-05T02:46:43.424Z,99.25
2023-05-05T02:51:47.684Z,100.00
2023-05-05T02:56:58.680Z,100.00
2023-05-05T03:02:11.757Z,100.00
2023-05-05T03:07:24.629Z,100.00
2023-05-05T03:12:31.392Z,100.00
2023-05-05T03:17:49.896Z,100.00
2023-05-05T03:22:54.748Z,100.00
2023-05-05T03:27:57.561Z,100.00
2023-05-05T03:33:00.388Z,100.00
2023-05-05T03:38:05.554Z,100.00
2023-05-05T03:43:09.003Z,100.00
2023-05-05T03:48:11.728Z,100.00
2023-05-05T03:53:17.432Z,100.00
2023-05-05T03:58:20.834Z,100.00
2023-05-05T04:03:24.480Z,100.00
2023-05-05T04:08:28.717Z,100.00
2023-05-05T04:13:31.772Z,100.00
2023-05-05T04:18:55.295Z,100.00
2023-05-05T04:24:22.934Z,100.00
2023-05-05T04:29:45.742Z,100.00
2023-05-05T04:35:09.225Z,100.00
2023-05-05T04:40:33.176Z,100.00
2023-05-05T04:45:53.544Z,100.00
2023-05-05T04:50:58.259Z,100.00
2023-05-05T04:56:02.570Z,100.00
2023-05-05T05:01:05.463Z,100.00
2023-05-05T05:06:08.122Z,100.00
2023-05-05T05:11:13.498Z,100.00
2023-05-05T05:16:17.541Z,100.00
2023-05-05T05:21:20.585Z,100.00
2023-05-05T05:26:24.538Z,100.00
2023-05-05T05:31:27.943Z,100.00
2023-05-05T05:36:31.604Z,100.00
2023-05-05T05:41:36.430Z,100.00
2023-05-05T05:46:39.346Z,100.00
2023-05-05T05:51:42.246Z,100.00
2023-05-05T05:56:46.330Z,100.00
2023-05-05T06:01:48.953Z,100.00
2023-05-05T06:06:52.115Z,100.00
2023-05-05T06:11:56.402Z,100.00
2023-05-05T06:16:58.990Z,100.00
2023-05-05T06:22:04.114Z,100.00
2023-05-05T06:27:08.000Z,100.00
2023-05-05T06:32:12.232Z,100.00
2023-05-05T06:37:14.836Z,100.00
2023-05-05T06:42:18.728Z,100.00
2023-05-05T06:47:22.048Z,100.00
2023-05-05T06:52:24.636Z,100.00
2023-05-05T06:57:28.716Z,100.00
2023-05-05T07:02:31.464Z,100.00
2023-05-05T07:07:34.033Z,100.00
2023-05-05T07:12:38.379Z,100.00
2023-05-05T07:17:41.256Z,100.00
2023-05-05T07:22:43.823Z,100.00
2023-05-05T07:27:47.755Z,100.00
2023-05-05T07:32:51.030Z,100.00
2023-05-05T07:37:53.596Z,100.00
2023-05-05T07:42:58.348Z,100.00
2023-05-05T07:48:01.223Z,99.88
2023-05-05T07:53:13.600Z,99.16
2023-05-05T07:58:19.104Z,98.49
2023-05-05T08:03:24.293Z,98.52
2023-05-05T08:08:27.478Z,98.44
2023-05-05T08:13:31.715Z,98.58
2023-05-05T08:18:37.356Z,98.08
2023-05-05T08:23:40.287Z,96.53
2023-05-05T08:28:44.158Z,96.46
2023-05-05T08:33:47.353Z,96.32
2023-05-05T08:38:49.943Z,96.39
2023-05-05T08:43:53.904Z,94.18
2023-05-05T08:48:57.210Z,92.05
2023-05-05T08:54:04.053Z,91.68
2023-05-05T08:59:09.512Z,91.13
2023-05-05T09:04:12.125Z,92.25
2023-05-05T09:09:18.175Z,92.11
2023-05-05T09:14:22.046Z,91.66
2023-05-05T09:19:24.598Z,89.20
2023-05-05T09:24:27.138Z,89.07
2023-05-05T09:29:31.086Z,89.56
2023-05-05T09:34:35.032Z,88.27
2023-05-05T09:39:37.693Z,87.82
2023-05-05T09:44:41.897Z,88.65
2023-05-05T09:49:44.509Z,84.54
2023-05-05T09:54:54.907Z,83.09
2023-05-05T10:00:01.206Z,82.68
2023-05-05T10:05:09.374Z,84.17
2023-05-05T10:10:14.332Z,81.71
2023-05-05T10:15:19.442Z,82.93
2023-05-05T10:20:23.624Z,81.77
2023-05-05T10:25:30.973Z,79.86
2023-05-05T10:30:42.859Z,80.07
2023-05-05T10:35:47.400Z,79.41
2023-05-05T10:40:51.271Z,80.10
2023-05-05T10:45:56.146Z,80.48
2023-05-05T10:51:07.740Z,78.95
2023-05-05T10:56:18.177Z,79.77
2023-05-05T11:01:33.881Z,80.01
2023-05-05T11:06:36.597Z,79.88
2023-05-05T11:12:03.394Z,81.28
2023-05-05T11:17:45.078Z,76.41
2023-05-05T11:23:22.463Z,77.77
2023-05-05T11:28:29.967Z,78.24
2023-05-05T11:33:36.980Z,79.49
2023-05-05T11:38:48.439Z,78.24
2023-05-05T11:43:51.149Z,79.50
2023-05-05T11:48:55.004Z,78.05
2023-05-05T11:53:59.059Z,78.69
2023-05-05T11:59:10.358Z,79.12
2023-05-05T12:04:15.068Z,80.20
2023-05-05T12:09:19.105Z,83.47
2023-05-05T12:14:22.414Z,86.78
2023-05-05T12:19:29.874Z,87.01
2023-05-05T12:24:32.435Z,88.21
2023-05-05T12:29:35.227Z,85.87
2023-05-05T12:34:39.172Z,85.22
2023-05-05T12:39:41.705Z,81.02
2023-05-05T12:44:44.818Z,77.56
2023-05-05T12:49:50.645Z,78.17
2023-05-05T12:54:57.505Z,78.66
2023-05-05T13:00:13.476Z,77.09
2023-05-05T13:05:29.912Z,76.19
2023-05-05T13:10:32.518Z,78.06
2023-05-05T13:15:35.145Z,80.34
2023-05-05T13:20:39.048Z,82.12
2023-05-05T13:25:41.875Z,83.51
2023-05-05T13:30:44.434Z,86.52
2023-05-05T13:35:48.373Z,87.92
2023-05-05T13:40:51.113Z,88.34
2023-05-05T13:45:55.072Z,88.39
2023-05-05T13:51:01.000Z,89.27
2023-05-05T13:56:04.051Z,95.48
2023-05-05T14:01:06.775Z,100.00
2023-05-05T14:06:10.831Z,100.00
2023-05-05T14:11:13.721Z,100.00
2023-05-05T14:16:16.488Z,100.00
2023-05-05T14:21:20.425Z,100.00
2023-05-05T14:26:22.961Z,100.00
2023-05-05T14:31:25.588Z,100.00
2023-05-05T14:36:29.553Z,100.00
2023-05-05T14:41:32.084Z,100.00
2023-05-05T14:46:34.954Z,100.00
2023-05-05T14:51:38.833Z,100.00
2023-05-05T14:56:41.825Z,100.00
2023-05-05T15:01:44.445Z,100.00
2023-05-05T15:06:48.426Z,100.00
2023-05-05T15:11:51.385Z,100.00
2023-05-05T15:16:54.044Z,100.00
2023-05-05T15:21:58.023Z,100.00
2023-05-05T15:27:01.478Z,100.00
2023-05-05T15:32:04.101Z,100.00
2023-05-05T15:37:08.291Z,100.00
2023-05-05T15:42:10.832Z,100.00
2023-05-05T15:47:13.579Z,100.00
2023-05-05T15:52:17.630Z,100.00
2023-05-05T15:57:20.322Z,100.00
2023-05-05T16:02:23.030Z,100.00
2023-05-05T16:07:26.954Z,100.00
2023-05-05T16:12:29.506Z,100.00
2023-05-05T16:17:32.289Z,100.00
2023-05-05T16:22:36.809Z,100.00
2023-05-05T16:27:39.555Z,100.00
2023-05-05T16:32:42.261Z,100.00
2023-05-05T16:37:46.258Z,100.00
2023-05-05T16:42:48.794Z,100.00
2023-05-05T16:47:51.474Z,100.00
2023-05-05T16:52:55.502Z,100.00
2023-05-05T16:57:58.124Z,100.00
2023-05-05T17:03:00.709Z,100.00
2023-05-05T17:08:04.923Z,100.00
2023-05-05T17:13:08.250Z,100.00
2023-05-05T17:18:11.113Z,100.00
2023-05-05T17:23:16.531Z,100.00
2023-05-05T17:28:19.188Z,100.00
2023-05-05T17:33:22.042Z,100.00
2023-05-05T17:38:26.040Z,100.00
2023-05-05T17:43:29.060Z,100.00
2023-05-05T17:48:31.670Z,100.00
2023-05-05T17:53:35.916Z,100.00
2023-05-05T17:58:38.504Z,100.00
2023-05-05T18:03:41.277Z,100.00
2023-05-05T18:08:45.642Z,100.00
2023-05-05T18:13:48.204Z,100.00
2023-05-05T18:18:50.778Z,100.00
2023-05-05T18:24:01.756Z,100.00
2023-05-05T18:29:10.616Z,100.00
2023-05-05T18:34:13.568Z,100.00
2023-05-05T18:39:18.333Z,100.00
2023-05-05T18:44:21.015Z,100.00
2023-05-05T18:49:24.660Z,100.00
2023-05-05T18:54:28.823Z,100.00
2023-05-05T18:59:31.566Z,100.00
2023-05-05T19:04:37.276Z,100.00
2023-05-05T19:09:41.165Z,100.00
2023-05-05T19:14:43.768Z,100.00
2023-05-05T19:19:46.324Z,100.00
2023-05-05T19:24:50.384Z,100.00
2023-05-05T19:29:53.210Z,100.00
2023-05-05T19:34:55.769Z,100.00
2023-05-05T19:39:59.645Z,100.00
2023-05-05T19:45:02.658Z,100.00
2023-05-05T19:50:05.888Z,100.00
2023-05-05T19:55:12.826Z,100.00
2023-05-05T20:00:16.141Z,100.00
2023-05-05T20:05:18.691Z,100.00
2023-05-05T20:10:22.566Z,100.00
2023-05-05T20:15:25.269Z,100.00
2023-05-05T20:20:28.126Z,100.00
2023-05-05T20:25:32.045Z,100.00
2023-05-05T20:30:35.191Z,100.00
2023-05-05T20:35:37.802Z,100.00
2023-05-05T20:40:42.062Z,100.00
2023-05-05T20:45:46.194Z,100.00
2023-05-05T20:50:48.762Z,100.00
2023-05-05T20:55:52.646Z,100.00
2023-05-05T21:00:55.218Z,100.00
2023-05-05T21:05:58.236Z,100.00
2023-05-05T21:11:02.105Z,100.00
2023-05-05T21:16:05.028Z,100.00
2023-05-05T21:21:07.669Z,100.00
2023-05-05T21:26:11.714Z,100.00
2023-05-05T21:31:21.925Z,100.00
2023-05-05T21:36:25.067Z,100.00
2023-05-05T21:41:28.995Z,100.00
2023-05-05T21:46:31.611Z,100.00
2023-05-05T21:51:34.821Z,100.00
2023-05-05T21:56:39.136Z,100.00
2023-05-05T22:01:41.692Z,100.00
2023-05-05T22:06:44.267Z,100.00
2023-05-05T22:11:48.229Z,100.00
2023-05-05T22:16:50.995Z,100.00
2023-05-05T22:21:53.517Z,100.00
2023-05-05T22:26:58.103Z,100.00
2023-05-05T22:32:00.688Z,100.00
2023-05-05T22:37:03.219Z,100.00
2023-05-05T22:42:07.133Z,100.00
2023-05-05T22:47:09.790Z,100.00
2023-05-05T22:52:12.431Z,100.00
2023-05-05T22:57:16.370Z,100.00
2023-05-05T23:02:19.036Z,100.00
2023-05-05T23:07:21.838Z,100.00
2023-05-05T23:12:25.793Z,100.00
2023-05-05T23:17:28.372Z,100.00
2023-05-05T23:22:30.979Z,100.00
2023-05-05T23:27:34.974Z,100.00
2023-05-05T23:32:37.801Z,100.00
2023-05-05T23:37:40.404Z,100.00
2023-05-05T23:42:44.368Z,100.00
2023-05-05T23:47:46.985Z,100.00
2023-05-05T23:52:49.524Z,100.00
2023-05-05T23:57:53.787Z,100.00
